sensor_id;sensor_type;location;lat;lon;timestamp;temperature;humidity
55828;DHT22;41758;51.992;5.890;2023-02-12T00:01:41;13.00;63.60
55828;DHT22;41758;51.992;5.890;2023-02-12T00:04:07;13.00;63.60
55828;DHT22;41758;51.992;5.890;2023-02-12T00:06:33;13.00;63.50
55828;DHT22;41758;51.992;5.890;2023-02-12T00:08:59;13.00;63.50
55828;DHT22;41758;51.992;5.890;2023-02-12T00:11:27;13.00;63.70
55828;DHT22;41758;51.992;5.890;2023-02-12T00:13:54;13.00;63.60
55828;DHT22;41758;51.992;5.890;2023-02-12T00:16:23;13.00;63.60
55828;DHT22;41758;51.992;5.890;2023-02-12T00:18:54;13.00;63.50
55828;DHT22;41758;51.992;5.890;2023-02-12T00:21:21;13.00;63.80
55828;DHT22;41758;51.992;5.890;2023-02-12T00:23:47;12.90;63.60
55828;DHT22;41758;51.992;5.890;2023-02-12T00:26:15;12.90;63.70
55828;DHT22;41758;51.992;5.890;2023-02-12T00:28:45;12.80;63.30
55828;DHT22;41758;51.992;5.890;2023-02-12T00:31:17;12.80;63.20
55828;DHT22;41758;51.992;5.890;2023-02-12T00:33:43;12.70;63.10
55828;DHT22;41758;51.992;5.890;2023-02-12T00:36:14;12.60;63.10
55828;DHT22;41758;51.992;5.890;2023-02-12T00:38:40;12.50;63.40
55828;DHT22;41758;51.992;5.890;2023-02-12T00:41:06;12.50;63.60
55828;DHT22;41758;51.992;5.890;2023-02-12T00:43:32;12.40;63.70
55828;DHT22;41758;51.992;5.890;2023-02-12T00:45:59;12.30;64.10
55828;DHT22;41758;51.992;5.890;2023-02-12T00:48:25;12.30;63.80
55828;DHT22;41758;51.992;5.890;2023-02-12T00:50:51;12.30;63.70
55828;DHT22;41758;51.992;5.890;2023-02-12T00:53:17;12.20;64.00
55828;DHT22;41758;51.992;5.890;2023-02-12T00:55:44;12.20;64.20
55828;DHT22;41758;51.992;5.890;2023-02-12T00:58:16;12.20;64.40
55828;DHT22;41758;51.992;5.890;2023-02-12T01:00:42;12.20;64.30
55828;DHT22;41758;51.992;5.890;2023-02-12T01:03:08;12.20;64.60
55828;DHT22;41758;51.992;5.890;2023-02-12T01:05:34;12.10;64.80
55828;DHT22;41758;51.992;5.890;2023-02-12T01:08:02;12.20;65.00
55828;DHT22;41758;51.992;5.890;2023-02-12T01:10:29;12.20;64.80
55828;DHT22;41758;51.992;5.890;2023-02-12T01:12:56;12.10;64.70
55828;DHT22;41758;51.992;5.890;2023-02-12T01:15:22;12.10;64.30
55828;DHT22;41758;51.992;5.890;2023-02-12T01:17:50;12.10;64.20
55828;DHT22;41758;51.992;5.890;2023-02-12T01:20:18;12.00;64.70
55828;DHT22;41758;51.992;5.890;2023-02-12T01:22:45;12.00;64.90
55828;DHT22;41758;51.992;5.890;2023-02-12T01:25:13;12.00;64.60
55828;DHT22;41758;51.992;5.890;2023-02-12T01:27:42;12.00;64.80
55828;DHT22;41758;51.992;5.890;2023-02-12T01:30:12;12.00;64.70
55828;DHT22;41758;51.992;5.890;2023-02-12T01:32:39;12.00;64.60
55828;DHT22;41758;51.992;5.890;2023-02-12T01:35:07;12.00;64.50
55828;DHT22;41758;51.992;5.890;2023-02-12T01:37:36;11.90;64.50
55828;DHT22;41758;51.992;5.890;2023-02-12T01:40:05;11.90;64.50
55828;DHT22;41758;51.992;5.890;2023-02-12T01:42:32;11.90;64.50
55828;DHT22;41758;51.992;5.890;2023-02-12T01:47:43;11.90;64.80
55828;DHT22;41758;51.992;5.890;2023-02-12T01:50:16;11.90;64.70
55828;DHT22;41758;51.992;5.890;2023-02-12T01:52:50;11.90;65.00
55828;DHT22;41758;51.992;5.890;2023-02-12T01:55:19;11.90;65.40
55828;DHT22;41758;51.992;5.890;2023-02-12T01:57:47;11.90;65.50
55828;DHT22;41758;51.992;5.890;2023-02-12T02:00:16;11.90;65.60
55828;DHT22;41758;51.992;5.890;2023-02-12T02:02:45;11.90;65.50
55828;DHT22;41758;51.992;5.890;2023-02-12T02:05:19;11.90;65.00
55828;DHT22;41758;51.992;5.890;2023-02-12T02:07:48;11.90;64.90
55828;DHT22;41758;51.992;5.890;2023-02-12T02:10:14;11.90;65.20
55828;DHT22;41758;51.992;5.890;2023-02-12T02:12:39;11.90;65.30
55828;DHT22;41758;51.992;5.890;2023-02-12T02:15:25;11.90;65.10
55828;DHT22;41758;51.992;5.890;2023-02-12T02:17:57;11.90;65.40
55828;DHT22;41758;51.992;5.890;2023-02-12T02:20:41;11.90;65.50
55828;DHT22;41758;51.992;5.890;2023-02-12T02:31:19;11.70;64.60
55828;DHT22;41758;51.992;5.890;2023-02-12T02:34:14;11.70;65.10
55828;DHT22;41758;51.992;5.890;2023-02-12T02:39:35;11.70;64.90
55828;DHT22;41758;51.992;5.890;2023-02-12T02:42:22;11.60;64.70
55828;DHT22;41758;51.992;5.890;2023-02-12T02:45:10;11.60;64.70
55828;DHT22;41758;51.992;5.890;2023-02-12T02:47:59;11.50;64.80
55828;DHT22;41758;51.992;5.890;2023-02-12T02:50:28;11.50;64.80
55828;DHT22;41758;51.992;5.890;2023-02-12T02:53:05;11.40;64.90
55828;DHT22;41758;51.992;5.890;2023-02-12T02:55:37;11.40;65.60
55828;DHT22;41758;51.992;5.890;2023-02-12T02:58:09;11.40;65.40
55828;DHT22;41758;51.992;5.890;2023-02-12T03:00:44;11.40;65.10
55828;DHT22;41758;51.992;5.890;2023-02-12T03:03:17;11.40;65.00
55828;DHT22;41758;51.992;5.890;2023-02-12T03:05:49;11.30;64.90
55828;DHT22;41758;51.992;5.890;2023-02-12T03:08:21;11.30;65.00
55828;DHT22;41758;51.992;5.890;2023-02-12T03:10:57;11.30;65.30
55828;DHT22;41758;51.992;5.890;2023-02-12T03:13:35;11.20;65.60
55828;DHT22;41758;51.992;5.890;2023-02-12T03:18:53;11.20;65.50
55828;DHT22;41758;51.992;5.890;2023-02-12T03:21:27;11.20;65.60
55828;DHT22;41758;51.992;5.890;2023-02-12T03:24:01;11.20;65.60
55828;DHT22;41758;51.992;5.890;2023-02-12T03:26:52;11.20;65.60
55828;DHT22;41758;51.992;5.890;2023-02-12T03:29:21;11.20;65.90
55828;DHT22;41758;51.992;5.890;2023-02-12T03:35:07;11.20;65.70
55828;DHT22;41758;51.992;5.890;2023-02-12T03:37:37;11.20;65.60
55828;DHT22;41758;51.992;5.890;2023-02-12T03:40:49;11.20;65.60
55828;DHT22;41758;51.992;5.890;2023-02-12T03:43:14;11.20;65.40
55828;DHT22;41758;51.992;5.890;2023-02-12T03:46:05;11.20;65.60
55828;DHT22;41758;51.992;5.890;2023-02-12T03:51:25;11.20;65.90
55828;DHT22;41758;51.992;5.890;2023-02-12T03:53:55;11.20;65.60
55828;DHT22;41758;51.992;5.890;2023-02-12T03:56:26;11.20;65.50
55828;DHT22;41758;51.992;5.890;2023-02-12T04:02:30;11.30;65.40
55828;DHT22;41758;51.992;5.890;2023-02-12T04:04:56;11.20;65.90
55828;DHT22;41758;51.992;5.890;2023-02-12T04:07:22;11.30;66.10
55828;DHT22;41758;51.992;5.890;2023-02-12T04:09:47;11.30;66.20
55828;DHT22;41758;51.992;5.890;2023-02-12T04:12:22;11.30;66.20
55828;DHT22;41758;51.992;5.890;2023-02-12T04:20:47;11.40;65.70
55828;DHT22;41758;51.992;5.890;2023-02-12T04:23:56;11.40;65.80
55828;DHT22;41758;51.992;5.890;2023-02-12T04:26:47;11.40;66.00
55828;DHT22;41758;51.992;5.890;2023-02-12T04:29:16;11.50;65.70
55828;DHT22;41758;51.992;5.890;2023-02-12T04:34:57;11.50;65.50
55828;DHT22;41758;51.992;5.890;2023-02-12T04:37:27;11.50;65.60
55828;DHT22;41758;51.992;5.890;2023-02-12T04:39:53;11.50;65.50
55828;DHT22;41758;51.992;5.890;2023-02-12T04:42:19;11.40;65.40
55828;DHT22;41758;51.992;5.890;2023-02-12T04:44:45;11.50;65.50
55828;DHT22;41758;51.992;5.890;2023-02-12T04:47:13;11.50;65.70
55828;DHT22;41758;51.992;5.890;2023-02-12T04:49:42;11.50;65.80
55828;DHT22;41758;51.992;5.890;2023-02-12T04:52:08;11.60;65.60
55828;DHT22;41758;51.992;5.890;2023-02-12T04:54:37;11.60;65.70
55828;DHT22;41758;51.992;5.890;2023-02-12T04:57:06;11.60;65.80
55828;DHT22;41758;51.992;5.890;2023-02-12T04:59:31;11.60;65.60
55828;DHT22;41758;51.992;5.890;2023-02-12T05:02:00;11.60;65.50
55828;DHT22;41758;51.992;5.890;2023-02-12T05:04:26;11.70;65.70
55828;DHT22;41758;51.992;5.890;2023-02-12T05:06:52;11.60;65.60
55828;DHT22;41758;51.992;5.890;2023-02-12T05:09:19;11.70;65.50
55828;DHT22;41758;51.992;5.890;2023-02-12T05:11:45;11.60;65.40
55828;DHT22;41758;51.992;5.890;2023-02-12T05:14:11;11.70;65.40
55828;DHT22;41758;51.992;5.890;2023-02-12T05:16:37;11.60;65.30
55828;DHT22;41758;51.992;5.890;2023-02-12T05:19:03;11.70;65.20
55828;DHT22;41758;51.992;5.890;2023-02-12T05:21:28;11.70;65.50
55828;DHT22;41758;51.992;5.890;2023-02-12T05:23:54;11.70;65.60
55828;DHT22;41758;51.992;5.890;2023-02-12T05:26:21;11.70;65.60
55828;DHT22;41758;51.992;5.890;2023-02-12T05:28:47;11.70;65.70
55828;DHT22;41758;51.992;5.890;2023-02-12T05:31:16;11.70;65.70
55828;DHT22;41758;51.992;5.890;2023-02-12T05:33:43;11.70;65.70
55828;DHT22;41758;51.992;5.890;2023-02-12T05:36:15;11.70;65.70
55828;DHT22;41758;51.992;5.890;2023-02-12T05:38:41;11.70;65.60
55828;DHT22;41758;51.992;5.890;2023-02-12T05:41:09;11.80;65.70
55828;DHT22;41758;51.992;5.890;2023-02-12T05:43:36;11.80;65.60
55828;DHT22;41758;51.992;5.890;2023-02-12T05:46:04;11.80;65.70
55828;DHT22;41758;51.992;5.890;2023-02-12T05:48:30;11.80;65.30
55828;DHT22;41758;51.992;5.890;2023-02-12T05:51:09;11.80;65.40
55828;DHT22;41758;51.992;5.890;2023-02-12T05:53:37;11.80;65.30
55828;DHT22;41758;51.992;5.890;2023-02-12T05:58:36;11.80;65.20
55828;DHT22;41758;51.992;5.890;2023-02-12T06:01:02;11.80;65.30
55828;DHT22;41758;51.992;5.890;2023-02-12T06:03:28;11.80;65.20
55828;DHT22;41758;51.992;5.890;2023-02-12T06:05:53;11.80;65.00
55828;DHT22;41758;51.992;5.890;2023-02-12T06:08:19;11.80;65.10
55828;DHT22;41758;51.992;5.890;2023-02-12T06:10:45;11.80;65.20
55828;DHT22;41758;51.992;5.890;2023-02-12T06:13:11;11.80;65.20
55828;DHT22;41758;51.992;5.890;2023-02-12T06:15:36;11.80;65.60
55828;DHT22;41758;51.992;5.890;2023-02-12T06:18:02;11.80;65.60
55828;DHT22;41758;51.992;5.890;2023-02-12T06:20:28;11.80;65.50
55828;DHT22;41758;51.992;5.890;2023-02-12T06:22:54;11.80;65.40
55828;DHT22;41758;51.992;5.890;2023-02-12T06:25:20;11.80;65.40
55828;DHT22;41758;51.992;5.890;2023-02-12T06:27:45;11.80;65.50
55828;DHT22;41758;51.992;5.890;2023-02-12T06:30:12;11.80;65.40
55828;DHT22;41758;51.992;5.890;2023-02-12T06:32:37;11.80;65.30
55828;DHT22;41758;51.992;5.890;2023-02-12T06:35:03;11.90;65.30
55828;DHT22;41758;51.992;5.890;2023-02-12T06:37:29;11.90;65.20
55828;DHT22;41758;51.992;5.890;2023-02-12T06:39:57;11.90;65.10
55828;DHT22;41758;51.992;5.890;2023-02-12T06:42:23;11.90;65.10
55828;DHT22;41758;51.992;5.890;2023-02-12T06:44:48;11.90;65.00
55828;DHT22;41758;51.992;5.890;2023-02-12T06:47:14;11.90;65.20
55828;DHT22;41758;51.992;5.890;2023-02-12T06:49:40;11.90;65.20
55828;DHT22;41758;51.992;5.890;2023-02-12T06:52:05;11.90;65.00
55828;DHT22;41758;51.992;5.890;2023-02-12T06:54:31;11.90;64.90
55828;DHT22;41758;51.992;5.890;2023-02-12T06:56:57;11.90;65.10
55828;DHT22;41758;51.992;5.890;2023-02-12T06:59:22;11.90;65.00
55828;DHT22;41758;51.992;5.890;2023-02-12T07:01:48;11.90;64.90
55828;DHT22;41758;51.992;5.890;2023-02-12T07:04:14;11.90;64.80
55828;DHT22;41758;51.992;5.890;2023-02-12T07:06:40;11.90;64.90
55828;DHT22;41758;51.992;5.890;2023-02-12T07:09:05;11.90;65.20
55828;DHT22;41758;51.992;5.890;2023-02-12T07:11:33;11.90;65.20
55828;DHT22;41758;51.992;5.890;2023-02-12T07:13:59;11.90;65.20
55828;DHT22;41758;51.992;5.890;2023-02-12T07:16:26;11.90;65.20
55828;DHT22;41758;51.992;5.890;2023-02-12T07:19:01;11.90;65.00
55828;DHT22;41758;51.992;5.890;2023-02-12T07:21:26;12.00;64.70
55828;DHT22;41758;51.992;5.890;2023-02-12T07:23:52;11.90;64.90
55828;DHT22;41758;51.992;5.890;2023-02-12T07:26:19;12.00;64.80
55828;DHT22;41758;51.992;5.890;2023-02-12T07:28:45;12.00;64.70
55828;DHT22;41758;51.992;5.890;2023-02-12T07:31:13;12.00;64.70
55828;DHT22;41758;51.992;5.890;2023-02-12T07:33:40;12.00;64.70
55828;DHT22;41758;51.992;5.890;2023-02-12T07:36:10;12.00;64.50
55828;DHT22;41758;51.992;5.890;2023-02-12T07:38:36;12.00;64.90
55828;DHT22;41758;51.992;5.890;2023-02-12T07:41:25;12.10;65.00
55828;DHT22;41758;51.992;5.890;2023-02-12T07:44:00;12.10;64.90
55828;DHT22;41758;51.992;5.890;2023-02-12T07:46:34;12.10;65.10
55828;DHT22;41758;51.992;5.890;2023-02-12T07:49:02;12.10;65.30
55828;DHT22;41758;51.992;5.890;2023-02-12T07:51:30;12.10;65.00
55828;DHT22;41758;51.992;5.890;2023-02-12T07:53:57;12.10;65.10
55828;DHT22;41758;51.992;5.890;2023-02-12T07:56:25;12.20;65.20
55828;DHT22;41758;51.992;5.890;2023-02-12T07:58:55;12.20;65.10
55828;DHT22;41758;51.992;5.890;2023-02-12T08:01:24;12.20;65.00
55828;DHT22;41758;51.992;5.890;2023-02-12T08:03:51;12.20;65.00
55828;DHT22;41758;51.992;5.890;2023-02-12T08:06:23;12.30;65.20
55828;DHT22;41758;51.992;5.890;2023-02-12T08:08:53;12.30;65.00
55828;DHT22;41758;51.992;5.890;2023-02-12T08:11:20;12.30;64.60
55828;DHT22;41758;51.992;5.890;2023-02-12T08:13:46;12.30;64.40
55828;DHT22;41758;51.992;5.890;2023-02-12T08:16:14;12.30;64.50
55828;DHT22;41758;51.992;5.890;2023-02-12T08:18:40;12.30;64.50
55828;DHT22;41758;51.992;5.890;2023-02-12T08:21:15;12.30;64.20
55828;DHT22;41758;51.992;5.890;2023-02-12T08:23:43;12.30;64.70
55828;DHT22;41758;51.992;5.890;2023-02-12T08:26:15;12.30;64.70
55828;DHT22;41758;51.992;5.890;2023-02-12T08:28:43;12.30;64.80
55828;DHT22;41758;51.992;5.890;2023-02-12T08:31:15;12.40;64.80
55828;DHT22;41758;51.992;5.890;2023-02-12T08:33:43;12.40;64.90
55828;DHT22;41758;51.992;5.890;2023-02-12T08:36:10;12.40;64.40
55828;DHT22;41758;51.992;5.890;2023-02-12T08:38:37;12.40;64.20
55828;DHT22;41758;51.992;5.890;2023-02-12T08:41:06;12.50;64.00
55828;DHT22;41758;51.992;5.890;2023-02-12T08:43:32;12.50;64.00
55828;DHT22;41758;51.992;5.890;2023-02-12T08:46:04;12.50;63.90
55828;DHT22;41758;51.992;5.890;2023-02-12T08:48:32;12.60;63.80
55828;DHT22;41758;51.992;5.890;2023-02-12T08:51:12;12.60;64.10
55828;DHT22;41758;51.992;5.890;2023-02-12T08:53:40;12.60;63.70
55828;DHT22;41758;51.992;5.890;2023-02-12T08:56:12;12.60;63.70
55828;DHT22;41758;51.992;5.890;2023-02-12T08:58:39;12.70;63.80
55828;DHT22;41758;51.992;5.890;2023-02-12T09:01:09;12.70;63.50
55828;DHT22;41758;51.992;5.890;2023-02-12T09:03:35;12.70;63.70
55828;DHT22;41758;51.992;5.890;2023-02-12T09:06:07;12.70;63.60
55828;DHT22;41758;51.992;5.890;2023-02-12T09:08:34;12.70;63.50
55828;DHT22;41758;51.992;5.890;2023-02-12T09:11:09;12.70;63.60
55828;DHT22;41758;51.992;5.890;2023-02-12T09:13:35;12.80;62.90
55828;DHT22;41758;51.992;5.890;2023-02-12T09:16:05;12.80;63.50
55828;DHT22;41758;51.992;5.890;2023-02-12T09:18:32;12.80;63.40
55828;DHT22;41758;51.992;5.890;2023-02-12T09:21:03;12.80;63.60
55828;DHT22;41758;51.992;5.890;2023-02-12T09:23:30;12.80;63.30
55828;DHT22;41758;51.992;5.890;2023-02-12T09:25:56;12.80;63.30
55828;DHT22;41758;51.992;5.890;2023-02-12T09:28:21;12.80;63.40
55828;DHT22;41758;51.992;5.890;2023-02-12T09:30:50;12.90;63.30
55828;DHT22;41758;51.992;5.890;2023-02-12T09:33:16;12.90;63.40
55828;DHT22;41758;51.992;5.890;2023-02-12T09:35:42;12.90;63.60
55828;DHT22;41758;51.992;5.890;2023-02-12T09:38:08;12.90;63.00
55828;DHT22;41758;51.992;5.890;2023-02-12T09:51:22;12.80;62.10
55828;DHT22;41758;51.992;5.890;2023-02-12T09:53:53;12.80;62.00
55828;DHT22;41758;51.992;5.890;2023-02-12T09:56:22;12.90;62.30
55828;DHT22;41758;51.992;5.890;2023-02-12T09:58:58;12.90;62.30
55828;DHT22;41758;51.992;5.890;2023-02-12T10:01:26;12.90;62.60
55828;DHT22;41758;51.992;5.890;2023-02-12T10:03:52;12.90;62.50
55828;DHT22;41758;51.992;5.890;2023-02-12T10:06:25;12.90;61.80
55828;DHT22;41758;51.992;5.890;2023-02-12T10:17:43;13.00;62.30
55828;DHT22;41758;51.992;5.890;2023-02-12T10:25:50;13.00;62.40
55828;DHT22;41758;51.992;5.890;2023-02-12T10:28:39;13.00;62.20
55828;DHT22;41758;51.992;5.890;2023-02-12T10:31:29;13.00;61.50
55828;DHT22;41758;51.992;5.890;2023-02-12T10:33:56;13.10;61.70
55828;DHT22;41758;51.992;5.890;2023-02-12T10:36:44;13.00;61.30
55828;DHT22;41758;51.992;5.890;2023-02-12T10:41:42;13.10;62.20
55828;DHT22;41758;51.992;5.890;2023-02-12T10:44:10;13.10;61.60
55828;DHT22;41758;51.992;5.890;2023-02-12T10:46:36;13.00;61.60
55828;DHT22;41758;51.992;5.890;2023-02-12T10:49:02;13.10;61.40
55828;DHT22;41758;51.992;5.890;2023-02-12T10:52:08;13.10;61.10
55828;DHT22;41758;51.992;5.890;2023-02-12T10:54:39;13.10;61.70
55828;DHT22;41758;51.992;5.890;2023-02-12T10:59:38;13.20;60.80
55828;DHT22;41758;51.992;5.890;2023-02-12T11:02:22;13.20;60.80
55828;DHT22;41758;51.992;5.890;2023-02-12T11:04:52;13.20;60.90
55828;DHT22;41758;51.992;5.890;2023-02-12T11:07:22;13.20;61.00
55828;DHT22;41758;51.992;5.890;2023-02-12T11:09:50;13.30;60.70
55828;DHT22;41758;51.992;5.890;2023-02-12T11:14:51;13.30;60.60
55828;DHT22;41758;51.992;5.890;2023-02-12T11:17:34;13.30;60.30
55828;DHT22;41758;51.992;5.890;2023-02-12T11:25:18;13.30;60.60
55828;DHT22;41758;51.992;5.890;2023-02-12T11:27:44;13.30;60.70
55828;DHT22;41758;51.992;5.890;2023-02-12T11:30:22;13.40;61.20
55828;DHT22;41758;51.992;5.890;2023-02-12T11:32:48;13.30;61.10
55828;DHT22;41758;51.992;5.890;2023-02-12T11:35:21;13.40;61.20
55828;DHT22;41758;51.992;5.890;2023-02-12T11:37:55;13.30;61.10
55828;DHT22;41758;51.992;5.890;2023-02-12T11:40:30;13.40;61.20
55828;DHT22;41758;51.992;5.890;2023-02-12T11:43:01;13.40;61.10
55828;DHT22;41758;51.992;5.890;2023-02-12T11:45:48;13.40;60.70
55828;DHT22;41758;51.992;5.890;2023-02-12T11:48:35;13.40;60.60
55828;DHT22;41758;51.992;5.890;2023-02-12T11:51:05;13.40;59.80
55828;DHT22;41758;51.992;5.890;2023-02-12T11:53:52;13.40;59.70
55828;DHT22;41758;51.992;5.890;2023-02-12T11:56:27;13.30;59.60
55828;DHT22;41758;51.992;5.890;2023-02-12T11:59:37;13.30;60.10
55828;DHT22;41758;51.992;5.890;2023-02-12T12:02:29;13.30;60.20
55828;DHT22;41758;51.992;5.890;2023-02-12T12:05:06;13.40;60.10
55828;DHT22;41758;51.992;5.890;2023-02-12T12:07:36;13.40;59.90
55828;DHT22;41758;51.992;5.890;2023-02-12T12:10:10;13.40;59.20
55828;DHT22;41758;51.992;5.890;2023-02-12T12:13:05;13.50;59.30
55828;DHT22;41758;51.992;5.890;2023-02-12T12:15:43;13.60;59.20
55828;DHT22;41758;51.992;5.890;2023-02-12T12:18:46;13.60;59.20
55828;DHT22;41758;51.992;5.890;2023-02-12T12:21:46;13.70;59.00
55828;DHT22;41758;51.992;5.890;2023-02-12T12:24:25;13.70;59.20
55828;DHT22;41758;51.992;5.890;2023-02-12T12:27:03;13.70;58.50
55828;DHT22;41758;51.992;5.890;2023-02-12T12:29:58;13.70;59.00
55828;DHT22;41758;51.992;5.890;2023-02-12T12:32:28;13.80;59.00
55828;DHT22;41758;51.992;5.890;2023-02-12T12:34:55;13.80;58.80
55828;DHT22;41758;51.992;5.890;2023-02-12T12:52:38;13.90;58.00
55828;DHT22;41758;51.992;5.890;2023-02-12T13:01:44;13.90;58.20
55828;DHT22;41758;51.992;5.890;2023-02-12T13:28:14;14.00;56.30
55828;DHT22;41758;51.992;5.890;2023-02-12T13:30:47;14.00;57.50
55828;DHT22;41758;51.992;5.890;2023-02-12T13:33:24;14.00;57.20
55828;DHT22;41758;51.992;5.890;2023-02-12T13:35:57;14.00;57.60
55828;DHT22;41758;51.992;5.890;2023-02-12T13:41:11;14.00;57.10
55828;DHT22;41758;51.992;5.890;2023-02-12T13:52:58;14.00;57.60
55828;DHT22;41758;51.992;5.890;2023-02-12T14:01:04;14.00;57.10
55828;DHT22;41758;51.992;5.890;2023-02-12T14:03:32;14.00;57.70
55828;DHT22;41758;51.992;5.890;2023-02-12T14:06:20;13.90;57.00
55828;DHT22;41758;51.992;5.890;2023-02-12T14:08:50;13.90;57.60
55828;DHT22;41758;51.992;5.890;2023-02-12T14:11:19;13.90;58.20
55828;DHT22;41758;51.992;5.890;2023-02-12T14:13:57;13.90;57.50
55828;DHT22;41758;51.992;5.890;2023-02-12T14:22:01;14.00;57.00
55828;DHT22;41758;51.992;5.890;2023-02-12T14:24:46;14.00;57.10
55828;DHT22;41758;51.992;5.890;2023-02-12T14:27:49;14.00;57.50
55828;DHT22;41758;51.992;5.890;2023-02-12T14:35:37;13.90;56.60
55828;DHT22;41758;51.992;5.890;2023-02-12T14:41:24;13.90;56.10
55828;DHT22;41758;51.992;5.890;2023-02-12T14:46:58;13.90;56.10
55828;DHT22;41758;51.992;5.890;2023-02-12T14:49:27;13.90;56.20
55828;DHT22;41758;51.992;5.890;2023-02-12T14:51:59;13.90;56.10
55828;DHT22;41758;51.992;5.890;2023-02-12T14:54:48;13.90;57.10
55828;DHT22;41758;51.992;5.890;2023-02-12T14:57:25;13.90;56.20
55828;DHT22;41758;51.992;5.890;2023-02-12T14:59:56;13.90;56.10
55828;DHT22;41758;51.992;5.890;2023-02-12T15:02:28;13.90;56.20
55828;DHT22;41758;51.992;5.890;2023-02-12T15:05:04;13.90;56.10
55828;DHT22;41758;51.992;5.890;2023-02-12T15:07:36;13.90;56.00
55828;DHT22;41758;51.992;5.890;2023-02-12T15:10:18;13.90;55.60
55828;DHT22;41758;51.992;5.890;2023-02-12T15:15:43;13.80;55.80
55828;DHT22;41758;51.992;5.890;2023-02-12T15:18:26;13.80;55.90
55828;DHT22;41758;51.992;5.890;2023-02-12T15:23:40;13.80;56.50
55828;DHT22;41758;51.992;5.890;2023-02-12T15:26:21;13.80;56.50
55828;DHT22;41758;51.992;5.890;2023-02-12T15:28:50;13.80;56.40
55828;DHT22;41758;51.992;5.890;2023-02-12T15:31:19;13.80;56.30
55828;DHT22;41758;51.992;5.890;2023-02-12T15:33:49;13.80;56.10
55828;DHT22;41758;51.992;5.890;2023-02-12T15:36:19;13.80;56.00
55828;DHT22;41758;51.992;5.890;2023-02-12T15:38:50;13.80;56.90
55828;DHT22;41758;51.992;5.890;2023-02-12T15:43:58;13.80;57.50
55828;DHT22;41758;51.992;5.890;2023-02-12T15:46:24;13.80;57.90
55828;DHT22;41758;51.992;5.890;2023-02-12T15:48:50;13.80;58.00
55828;DHT22;41758;51.992;5.890;2023-02-12T15:51:33;13.70;57.10
55828;DHT22;41758;51.992;5.890;2023-02-12T15:54:03;13.70;56.90
55828;DHT22;41758;51.992;5.890;2023-02-12T15:56:30;13.70;56.50
55828;DHT22;41758;51.992;5.890;2023-02-12T15:58:59;13.70;56.80
55828;DHT22;41758;51.992;5.890;2023-02-12T16:01:31;13.60;56.60
55828;DHT22;41758;51.992;5.890;2023-02-12T16:04:00;13.70;56.70
55828;DHT22;41758;51.992;5.890;2023-02-12T16:06:30;13.60;56.80
55828;DHT22;41758;51.992;5.890;2023-02-12T16:09:02;13.70;56.60
55828;DHT22;41758;51.992;5.890;2023-02-12T16:11:30;13.70;57.50
55828;DHT22;41758;51.992;5.890;2023-02-12T16:14:03;13.60;57.40
55828;DHT22;41758;51.992;5.890;2023-02-12T16:16:44;13.60;56.90
55828;DHT22;41758;51.992;5.890;2023-02-12T16:19:25;13.60;56.40
55828;DHT22;41758;51.992;5.890;2023-02-12T16:22:06;13.60;57.10
55828;DHT22;41758;51.992;5.890;2023-02-12T16:24:38;13.60;57.70
55828;DHT22;41758;51.992;5.890;2023-02-12T16:27:31;13.60;58.30
55828;DHT22;41758;51.992;5.890;2023-02-12T16:30:06;13.60;57.80
55828;DHT22;41758;51.992;5.890;2023-02-12T16:32:38;13.50;57.40
55828;DHT22;41758;51.992;5.890;2023-02-12T16:35:21;13.50;58.00
55828;DHT22;41758;51.992;5.890;2023-02-12T16:37:50;13.50;58.70
55828;DHT22;41758;51.992;5.890;2023-02-12T16:40:20;13.50;58.90
55828;DHT22;41758;51.992;5.890;2023-02-12T16:48:16;13.50;59.60
55828;DHT22;41758;51.992;5.890;2023-02-12T16:50:52;13.40;59.80
55828;DHT22;41758;51.992;5.890;2023-02-12T16:55:56;13.40;59.70
55828;DHT22;41758;51.992;5.890;2023-02-12T16:58:22;13.40;59.70
55828;DHT22;41758;51.992;5.890;2023-02-12T17:00:50;13.40;59.30
55828;DHT22;41758;51.992;5.890;2023-02-12T17:03:16;13.40;58.60
55828;DHT22;41758;51.992;5.890;2023-02-12T17:05:42;13.40;58.50
55828;DHT22;41758;51.992;5.890;2023-02-12T17:08:15;13.30;58.60
55828;DHT22;41758;51.992;5.890;2023-02-12T17:10:41;13.30;59.70
55828;DHT22;41758;51.992;5.890;2023-02-12T17:13:08;13.30;59.30
55828;DHT22;41758;51.992;5.890;2023-02-12T17:15:44;13.30;59.00
55828;DHT22;41758;51.992;5.890;2023-02-12T17:18:11;13.30;58.80
55828;DHT22;41758;51.992;5.890;2023-02-12T17:20:38;13.30;59.40
55828;DHT22;41758;51.992;5.890;2023-02-12T17:23:05;13.30;59.70
55828;DHT22;41758;51.992;5.890;2023-02-12T17:25:31;13.30;59.40
55828;DHT22;41758;51.992;5.890;2023-02-12T17:27:58;13.30;59.20
55828;DHT22;41758;51.992;5.890;2023-02-12T17:30:24;13.30;59.10
55828;DHT22;41758;51.992;5.890;2023-02-12T17:32:51;13.30;59.30
55828;DHT22;41758;51.992;5.890;2023-02-12T17:35:17;13.30;59.10
55828;DHT22;41758;51.992;5.890;2023-02-12T17:37:43;13.30;59.00
55828;DHT22;41758;51.992;5.890;2023-02-12T17:40:09;13.30;58.90
55828;DHT22;41758;51.992;5.890;2023-02-12T17:42:36;13.30;58.90
55828;DHT22;41758;51.992;5.890;2023-02-12T17:45:02;13.30;59.30
55828;DHT22;41758;51.992;5.890;2023-02-12T17:47:28;13.30;59.70
55828;DHT22;41758;51.992;5.890;2023-02-12T17:49:56;13.30;60.10
55828;DHT22;41758;51.992;5.890;2023-02-12T17:52:21;13.30;60.70
55828;DHT22;41758;51.992;5.890;2023-02-12T17:54:47;13.30;60.60
55828;DHT22;41758;51.992;5.890;2023-02-12T17:57:13;13.20;60.40
55828;DHT22;41758;51.992;5.890;2023-02-12T17:59:40;13.30;60.70
55828;DHT22;41758;51.992;5.890;2023-02-12T18:02:06;13.20;60.90
55828;DHT22;41758;51.992;5.890;2023-02-12T18:04:33;13.20;60.60
55828;DHT22;41758;51.992;5.890;2023-02-12T18:07:02;13.20;60.30
55828;DHT22;41758;51.992;5.890;2023-02-12T18:09:29;13.20;60.00
55828;DHT22;41758;51.992;5.890;2023-02-12T18:11:58;13.20;61.00
55828;DHT22;41758;51.992;5.890;2023-02-12T18:14:23;13.10;61.00
55828;DHT22;41758;51.992;5.890;2023-02-12T18:16:52;13.20;60.60
55828;DHT22;41758;51.992;5.890;2023-02-12T18:19:17;13.10;61.20
55828;DHT22;41758;51.992;5.890;2023-02-12T18:21:43;13.10;61.30
55828;DHT22;41758;51.992;5.890;2023-02-12T18:24:09;13.10;61.20
55828;DHT22;41758;51.992;5.890;2023-02-12T18:26:35;13.10;61.30
55828;DHT22;41758;51.992;5.890;2023-02-12T18:29:01;13.10;61.30
55828;DHT22;41758;51.992;5.890;2023-02-12T18:31:27;13.10;61.50
55828;DHT22;41758;51.992;5.890;2023-02-12T18:33:53;13.10;61.20
55828;DHT22;41758;51.992;5.890;2023-02-12T18:36:20;13.10;61.00
55828;DHT22;41758;51.992;5.890;2023-02-12T18:38:47;13.10;60.60
55828;DHT22;41758;51.992;5.890;2023-02-12T18:43:41;13.10;59.90
55828;DHT22;41758;51.992;5.890;2023-02-12T18:46:15;13.00;60.00
55828;DHT22;41758;51.992;5.890;2023-02-12T18:48:41;13.10;60.60